Yoder, Kansas
Current Conditions -  °F | °C
As of 5:27 AM on Saturday 20 Dec 2014 (Local Time) from KHUT Reporting Station
Haze Haze  
Wind Chill: 25°   Ceiling: Unl
Heat Index: 31°   Visibility: 3mi
Dew Point: 29°   Wind: 6mph
Humidity: 92%   Direction: 210°SSW
Pressure: 30.13"   Gusts: NA
Location:  37.94°N, 97.87°W
Report Text: KHUT 201127Z AUTO 21005KT 3SM BR SCT003 M01/M02 A3013 RMK AO2 I1000 T10061017
Loading
Personal Weather Stations






























Interactive Weather Map New forecast layout! Learn more

10-Day Weather Forecast

Advertisements
Track Severe Weather on mobile